sensor_id;sensor_type;location;lat;lon;timestamp;P1;durP1;ratioP1;P2;durP2;ratioP2
55758;SDS011;41678;52.126;20.664;2023-08-31T00:03:39;9.00;;;3.90;;
55758;SDS011;41678;52.126;20.664;2023-08-31T00:08:58;7.20;;;3.38;;
55758;SDS011;41678;52.126;20.664;2023-08-31T00:14:18;7.35;;;3.50;;
55758;SDS011;41678;52.126;20.664;2023-08-31T00:19:38;6.47;;;3.42;;
55758;SDS011;41678;52.126;20.664;2023-08-31T00:24:57;9.00;;;3.30;;
55758;SDS011;41678;52.126;20.664;2023-08-31T00:30:16;6.30;;;3.10;;
55758;SDS011;41678;52.126;20.664;2023-08-31T00:35:37;9.73;;;2.80;;
55758;SDS011;41678;52.126;20.664;2023-08-31T00:40:56;11.02;;;3.47;;
55758;SDS011;41678;52.126;20.664;2023-08-31T00:46:16;7.72;;;3.33;;
55758;SDS011;41678;52.126;20.664;2023-08-31T00:51:36;12.23;;;3.42;;
55758;SDS011;41678;52.126;20.664;2023-08-31T00:56:56;7.25;;;3.63;;
55758;SDS011;41678;52.126;20.664;2023-08-31T01:02:19;9.05;;;3.90;;
55758;SDS011;41678;52.126;20.664;2023-08-31T01:13:07;7.75;;;4.07;;
55758;SDS011;41678;52.126;20.664;2023-08-31T01:18:32;10.18;;;4.35;;
55758;SDS011;41678;52.126;20.664;2023-08-31T01:23:55;10.63;;;4.45;;
55758;SDS011;41678;52.126;20.664;2023-08-31T01:29:16;11.10;;;4.13;;
55758;SDS011;41678;52.126;20.664;2023-08-31T01:34:37;11.83;;;4.40;;
55758;SDS011;41678;52.126;20.664;2023-08-31T01:40:01;10.82;;;3.72;;
55758;SDS011;41678;52.126;20.664;2023-08-31T01:45:25;7.43;;;3.88;;
55758;SDS011;41678;52.126;20.664;2023-08-31T01:50:45;7.63;;;3.78;;
55758;SDS011;41678;52.126;20.664;2023-08-31T01:56:06;6.63;;;3.85;;
55758;SDS011;41678;52.126;20.664;2023-08-31T02:01:26;9.20;;;3.75;;
55758;SDS011;41678;52.126;20.664;2023-08-31T02:06:45;15.07;;;3.38;;
55758;SDS011;41678;52.126;20.664;2023-08-31T02:12:05;6.53;;;3.55;;
55758;SDS011;41678;52.126;20.664;2023-08-31T02:17:25;6.78;;;3.58;;
55758;SDS011;41678;52.126;20.664;2023-08-31T02:28:05;7.55;;;3.17;;
55758;SDS011;41678;52.126;20.664;2023-08-31T02:33:25;6.43;;;3.28;;
55758;SDS011;41678;52.126;20.664;2023-08-31T02:38:45;13.27;;;3.40;;
55758;SDS011;41678;52.126;20.664;2023-08-31T02:44:06;12.30;;;3.28;;
55758;SDS011;41678;52.126;20.664;2023-08-31T02:49:25;6.63;;;3.25;;
55758;SDS011;41678;52.126;20.664;2023-08-31T02:54:45;8.07;;;3.63;;
55758;SDS011;41678;52.126;20.664;2023-08-31T03:00:05;8.43;;;2.92;;
55758;SDS011;41678;52.126;20.664;2023-08-31T03:05:30;5.45;;;2.60;;
55758;SDS011;41678;52.126;20.664;2023-08-31T03:10:50;5.40;;;2.75;;
55758;SDS011;41678;52.126;20.664;2023-08-31T03:16:09;8.93;;;2.65;;
55758;SDS011;41678;52.126;20.664;2023-08-31T03:21:28;5.85;;;2.55;;
55758;SDS011;41678;52.126;20.664;2023-08-31T03:26:48;10.13;;;2.85;;
55758;SDS011;41678;52.126;20.664;2023-08-31T03:32:07;7.78;;;2.47;;
55758;SDS011;41678;52.126;20.664;2023-08-31T03:37:27;7.18;;;2.55;;
55758;SDS011;41678;52.126;20.664;2023-08-31T03:42:49;5.22;;;2.38;;
55758;SDS011;41678;52.126;20.664;2023-08-31T03:48:09;6.07;;;2.90;;
55758;SDS011;41678;52.126;20.664;2023-08-31T03:53:29;4.78;;;2.30;;
55758;SDS011;41678;52.126;20.664;2023-08-31T03:58:51;7.45;;;2.80;;
55758;SDS011;41678;52.126;20.664;2023-08-31T04:04:10;6.32;;;2.75;;
55758;SDS011;41678;52.126;20.664;2023-08-31T04:09:30;5.50;;;2.47;;
55758;SDS011;41678;52.126;20.664;2023-08-31T04:14:50;10.60;;;2.85;;
55758;SDS011;41678;52.126;20.664;2023-08-31T04:20:10;6.47;;;3.58;;
55758;SDS011;41678;52.126;20.664;2023-08-31T04:25:30;13.27;;;2.70;;
55758;SDS011;41678;52.126;20.664;2023-08-31T04:30:50;9.70;;;2.63;;
55758;SDS011;41678;52.126;20.664;2023-08-31T04:36:10;14.45;;;2.72;;
55758;SDS011;41678;52.126;20.664;2023-08-31T04:41:30;7.25;;;3.08;;
55758;SDS011;41678;52.126;20.664;2023-08-31T04:46:49;12.38;;;3.85;;
55758;SDS011;41678;52.126;20.664;2023-08-31T04:52:09;6.55;;;3.10;;
55758;SDS011;41678;52.126;20.664;2023-08-31T04:57:29;8.27;;;3.15;;
55758;SDS011;41678;52.126;20.664;2023-08-31T05:02:49;11.45;;;2.70;;
55758;SDS011;41678;52.126;20.664;2023-08-31T05:08:08;7.28;;;3.65;;
55758;SDS011;41678;52.126;20.664;2023-08-31T05:13:28;7.28;;;3.70;;
55758;SDS011;41678;52.126;20.664;2023-08-31T05:18:48;7.60;;;3.45;;
55758;SDS011;41678;52.126;20.664;2023-08-31T05:24:08;12.73;;;4.15;;
55758;SDS011;41678;52.126;20.664;2023-08-31T05:29:29;15.45;;;3.90;;
55758;SDS011;41678;52.126;20.664;2023-08-31T05:34:49;9.05;;;3.75;;
55758;SDS011;41678;52.126;20.664;2023-08-31T05:40:08;10.23;;;4.03;;
55758;SDS011;41678;52.126;20.664;2023-08-31T05:45:33;6.82;;;3.78;;
55758;SDS011;41678;52.126;20.664;2023-08-31T05:50:53;11.93;;;3.70;;
55758;SDS011;41678;52.126;20.664;2023-08-31T05:56:13;8.40;;;3.45;;
55758;SDS011;41678;52.126;20.664;2023-08-31T06:01:34;9.48;;;3.70;;
55758;SDS011;41678;52.126;20.664;2023-08-31T06:06:54;8.10;;;3.22;;
55758;SDS011;41678;52.126;20.664;2023-08-31T06:12:14;11.07;;;4.30;;
55758;SDS011;41678;52.126;20.664;2023-08-31T06:17:33;8.60;;;3.28;;
55758;SDS011;41678;52.126;20.664;2023-08-31T06:22:55;7.93;;;3.28;;
55758;SDS011;41678;52.126;20.664;2023-08-31T06:28:14;8.98;;;4.07;;
55758;SDS011;41678;52.126;20.664;2023-08-31T06:33:34;14.55;;;4.45;;
55758;SDS011;41678;52.126;20.664;2023-08-31T06:38:55;10.75;;;3.83;;
55758;SDS011;41678;52.126;20.664;2023-08-31T06:44:15;12.68;;;3.15;;
55758;SDS011;41678;52.126;20.664;2023-08-31T06:49:36;8.97;;;3.67;;
55758;SDS011;41678;52.126;20.664;2023-08-31T06:54:55;12.43;;;4.03;;
55758;SDS011;41678;52.126;20.664;2023-08-31T07:00:16;10.00;;;3.80;;
55758;SDS011;41678;52.126;20.664;2023-08-31T07:05:36;12.63;;;4.28;;
55758;SDS011;41678;52.126;20.664;2023-08-31T07:11:01;7.75;;;3.92;;
55758;SDS011;41678;52.126;20.664;2023-08-31T07:16:20;6.90;;;3.22;;
55758;SDS011;41678;52.126;20.664;2023-08-31T07:21:40;7.72;;;3.38;;
55758;SDS011;41678;52.126;20.664;2023-08-31T07:26:59;7.60;;;3.30;;
55758;SDS011;41678;52.126;20.664;2023-08-31T07:32:19;7.10;;;2.60;;
55758;SDS011;41678;52.126;20.664;2023-08-31T07:37:38;8.70;;;2.38;;
55758;SDS011;41678;52.126;20.664;2023-08-31T07:42:58;6.47;;;2.47;;
55758;SDS011;41678;52.126;20.664;2023-08-31T07:48:18;6.82;;;2.13;;
55758;SDS011;41678;52.126;20.664;2023-08-31T07:53:37;5.68;;;2.15;;
55758;SDS011;41678;52.126;20.664;2023-08-31T07:58:56;4.82;;;2.22;;
55758;SDS011;41678;52.126;20.664;2023-08-31T08:04:16;10.10;;;2.10;;
55758;SDS011;41678;52.126;20.664;2023-08-31T08:09:39;11.50;;;1.70;;
55758;SDS011;41678;52.126;20.664;2023-08-31T08:14:59;14.57;;;2.15;;
55758;SDS011;41678;52.126;20.664;2023-08-31T08:20:18;17.15;;;1.90;;
55758;SDS011;41678;52.126;20.664;2023-08-31T08:25:37;5.85;;;1.65;;
55758;SDS011;41678;52.126;20.664;2023-08-31T08:31:00;5.10;;;1.80;;
55758;SDS011;41678;52.126;20.664;2023-08-31T08:36:22;5.32;;;1.85;;
55758;SDS011;41678;52.126;20.664;2023-08-31T08:41:41;4.88;;;1.35;;
55758;SDS011;41678;52.126;20.664;2023-08-31T08:47:03;13.10;;;2.15;;
55758;SDS011;41678;52.126;20.664;2023-08-31T08:52:23;7.35;;;1.52;;
55758;SDS011;41678;52.126;20.664;2023-08-31T08:57:43;6.47;;;1.85;;
55758;SDS011;41678;52.126;20.664;2023-08-31T09:03:03;5.28;;;1.63;;
55758;SDS011;41678;52.126;20.664;2023-08-31T09:08:26;4.78;;;1.63;;
55758;SDS011;41678;52.126;20.664;2023-08-31T09:13:48;7.63;;;2.17;;
55758;SDS011;41678;52.126;20.664;2023-08-31T09:19:19;6.35;;;2.28;;
55758;SDS011;41678;52.126;20.664;2023-08-31T09:24:43;14.50;;;2.25;;
55758;SDS011;41678;52.126;20.664;2023-08-31T09:30:08;4.93;;;1.92;;
55758;SDS011;41678;52.126;20.664;2023-08-31T09:35:28;7.70;;;1.80;;
55758;SDS011;41678;52.126;20.664;2023-08-31T09:40:48;10.13;;;2.22;;
55758;SDS011;41678;52.126;20.664;2023-08-31T09:46:08;6.25;;;1.85;;
55758;SDS011;41678;52.126;20.664;2023-08-31T09:51:30;7.97;;;1.90;;
55758;SDS011;41678;52.126;20.664;2023-08-31T09:56:49;8.73;;;2.17;;
55758;SDS011;41678;52.126;20.664;2023-08-31T10:02:11;5.40;;;2.03;;
55758;SDS011;41678;52.126;20.664;2023-08-31T10:07:32;5.28;;;1.92;;
55758;SDS011;41678;52.126;20.664;2023-08-31T10:12:52;6.93;;;2.15;;
55758;SDS011;41678;52.126;20.664;2023-08-31T10:18:14;5.47;;;2.25;;
55758;SDS011;41678;52.126;20.664;2023-08-31T10:23:34;5.00;;;2.00;;
55758;SDS011;41678;52.126;20.664;2023-08-31T10:28:55;5.87;;;2.20;;
55758;SDS011;41678;52.126;20.664;2023-08-31T10:34:16;5.80;;;1.90;;
55758;SDS011;41678;52.126;20.664;2023-08-31T10:40:02;13.80;;;4.07;;
55758;SDS011;41678;52.126;20.664;2023-08-31T10:45:26;7.43;;;1.83;;
55758;SDS011;41678;52.126;20.664;2023-08-31T10:50:46;9.48;;;2.42;;
55758;SDS011;41678;52.126;20.664;2023-08-31T10:56:09;11.70;;;2.70;;
55758;SDS011;41678;52.126;20.664;2023-08-31T11:07:24;9.30;;;2.10;;
55758;SDS011;41678;52.126;20.664;2023-08-31T11:12:48;4.47;;;1.98;;
55758;SDS011;41678;52.126;20.664;2023-08-31T11:18:08;6.63;;;2.20;;
55758;SDS011;41678;52.126;20.664;2023-08-31T11:23:27;6.68;;;2.25;;
55758;SDS011;41678;52.126;20.664;2023-08-31T11:28:47;8.98;;;2.40;;
55758;SDS011;41678;52.126;20.664;2023-08-31T11:34:11;5.32;;;2.08;;
55758;SDS011;41678;52.126;20.664;2023-08-31T11:39:32;7.55;;;2.70;;
55758;SDS011;41678;52.126;20.664;2023-08-31T11:44:52;9.25;;;2.42;;
55758;SDS011;41678;52.126;20.664;2023-08-31T11:50:12;4.85;;;2.08;;
55758;SDS011;41678;52.126;20.664;2023-08-31T11:55:34;10.80;;;2.70;;
55758;SDS011;41678;52.126;20.664;2023-08-31T12:00:57;6.55;;;2.70;;
55758;SDS011;41678;52.126;20.664;2023-08-31T12:06:18;5.82;;;2.38;;
55758;SDS011;41678;52.126;20.664;2023-08-31T12:11:38;6.32;;;2.67;;
55758;SDS011;41678;52.126;20.664;2023-08-31T12:17:02;5.63;;;2.30;;
55758;SDS011;41678;52.126;20.664;2023-08-31T12:22:24;8.82;;;3.03;;
55758;SDS011;41678;52.126;20.664;2023-08-31T12:27:44;5.43;;;2.40;;
55758;SDS011;41678;52.126;20.664;2023-08-31T12:33:04;7.88;;;2.40;;
55758;SDS011;41678;52.126;20.664;2023-08-31T12:38:24;5.13;;;2.17;;
55758;SDS011;41678;52.126;20.664;2023-08-31T12:43:44;5.65;;;2.85;;
55758;SDS011;41678;52.126;20.664;2023-08-31T12:49:03;8.98;;;2.65;;
55758;SDS011;41678;52.126;20.664;2023-08-31T12:54:22;6.40;;;2.40;;
55758;SDS011;41678;52.126;20.664;2023-08-31T12:59:42;6.57;;;2.30;;
55758;SDS011;41678;52.126;20.664;2023-08-31T13:05:01;5.38;;;2.38;;
55758;SDS011;41678;52.126;20.664;2023-08-31T13:10:21;6.30;;;2.13;;
55758;SDS011;41678;52.126;20.664;2023-08-31T13:15:41;6.68;;;2.42;;
55758;SDS011;41678;52.126;20.664;2023-08-31T13:21:00;13.82;;;2.72;;
55758;SDS011;41678;52.126;20.664;2023-08-31T13:26:21;7.93;;;2.10;;
55758;SDS011;41678;52.126;20.664;2023-08-31T13:31:40;9.68;;;2.90;;
55758;SDS011;41678;52.126;20.664;2023-08-31T13:36:59;9.52;;;2.28;;
55758;SDS011;41678;52.126;20.664;2023-08-31T13:42:22;8.90;;;2.58;;
55758;SDS011;41678;52.126;20.664;2023-08-31T13:47:42;8.77;;;2.13;;
55758;SDS011;41678;52.126;20.664;2023-08-31T13:53:06;6.70;;;2.40;;
55758;SDS011;41678;52.126;20.664;2023-08-31T13:58:25;9.52;;;2.63;;
55758;SDS011;41678;52.126;20.664;2023-08-31T14:03:45;6.72;;;2.50;;
55758;SDS011;41678;52.126;20.664;2023-08-31T14:09:04;6.35;;;2.17;;
55758;SDS011;41678;52.126;20.664;2023-08-31T14:14:24;6.35;;;2.40;;
55758;SDS011;41678;52.126;20.664;2023-08-31T14:19:44;9.65;;;3.30;;
55758;SDS011;41678;52.126;20.664;2023-08-31T14:25:04;6.10;;;2.70;;
55758;SDS011;41678;52.126;20.664;2023-08-31T14:30:24;13.23;;;3.60;;
55758;SDS011;41678;52.126;20.664;2023-08-31T14:35:43;8.68;;;4.03;;
55758;SDS011;41678;52.126;20.664;2023-08-31T14:41:03;9.40;;;4.32;;
55758;SDS011;41678;52.126;20.664;2023-08-31T14:46:25;7.47;;;3.80;;
55758;SDS011;41678;52.126;20.664;2023-08-31T14:51:45;8.40;;;4.43;;
55758;SDS011;41678;52.126;20.664;2023-08-31T14:57:04;8.85;;;4.65;;
55758;SDS011;41678;52.126;20.664;2023-08-31T15:02:25;9.97;;;4.87;;
55758;SDS011;41678;52.126;20.664;2023-08-31T15:07:45;8.68;;;5.00;;
55758;SDS011;41678;52.126;20.664;2023-08-31T15:13:04;9.93;;;5.35;;
55758;SDS011;41678;52.126;20.664;2023-08-31T15:18:28;8.00;;;4.25;;
55758;SDS011;41678;52.126;20.664;2023-08-31T15:23:48;8.38;;;4.72;;
55758;SDS011;41678;52.126;20.664;2023-08-31T15:29:08;7.72;;;4.60;;
55758;SDS011;41678;52.126;20.664;2023-08-31T15:34:28;13.27;;;4.55;;
55758;SDS011;41678;52.126;20.664;2023-08-31T15:39:50;14.35;;;4.43;;
55758;SDS011;41678;52.126;20.664;2023-08-31T15:45:10;7.15;;;3.97;;
55758;SDS011;41678;52.126;20.664;2023-08-31T15:50:29;10.57;;;3.67;;
55758;SDS011;41678;52.126;20.664;2023-08-31T15:55:49;11.38;;;3.45;;
55758;SDS011;41678;52.126;20.664;2023-08-31T16:01:10;5.82;;;2.63;;
55758;SDS011;41678;52.126;20.664;2023-08-31T16:06:30;7.45;;;3.10;;
55758;SDS011;41678;52.126;20.664;2023-08-31T16:11:50;7.57;;;2.67;;
55758;SDS011;41678;52.126;20.664;2023-08-31T16:17:09;9.82;;;2.92;;
55758;SDS011;41678;52.126;20.664;2023-08-31T16:22:28;11.57;;;2.97;;
55758;SDS011;41678;52.126;20.664;2023-08-31T16:27:48;8.18;;;2.90;;
55758;SDS011;41678;52.126;20.664;2023-08-31T16:33:08;9.73;;;2.72;;
55758;SDS011;41678;52.126;20.664;2023-08-31T16:38:27;6.88;;;2.35;;
55758;SDS011;41678;52.126;20.664;2023-08-31T16:43:47;8.85;;;2.50;;
55758;SDS011;41678;52.126;20.664;2023-08-31T16:49:06;6.20;;;2.28;;
55758;SDS011;41678;52.126;20.664;2023-08-31T16:54:26;11.20;;;3.15;;
55758;SDS011;41678;52.126;20.664;2023-08-31T16:59:45;5.65;;;2.42;;
55758;SDS011;41678;52.126;20.664;2023-08-31T17:05:05;6.70;;;2.08;;
55758;SDS011;41678;52.126;20.664;2023-08-31T17:10:26;6.07;;;2.00;;
55758;SDS011;41678;52.126;20.664;2023-08-31T17:15:45;4.53;;;1.90;;
55758;SDS011;41678;52.126;20.664;2023-08-31T17:21:06;5.95;;;2.00;;
55758;SDS011;41678;52.126;20.664;2023-08-31T17:26:25;4.65;;;2.13;;
55758;SDS011;41678;52.126;20.664;2023-08-31T17:31:45;8.63;;;2.40;;
55758;SDS011;41678;52.126;20.664;2023-08-31T17:37:05;5.55;;;2.03;;
55758;SDS011;41678;52.126;20.664;2023-08-31T17:42:25;7.78;;;2.22;;
55758;SDS011;41678;52.126;20.664;2023-08-31T17:47:45;6.53;;;2.27;;
55758;SDS011;41678;52.126;20.664;2023-08-31T17:53:04;6.65;;;2.30;;
55758;SDS011;41678;52.126;20.664;2023-08-31T17:58:24;8.85;;;2.75;;
55758;SDS011;41678;52.126;20.664;2023-08-31T18:03:43;6.93;;;2.28;;
55758;SDS011;41678;52.126;20.664;2023-08-31T18:14:24;6.50;;;2.63;;
55758;SDS011;41678;52.126;20.664;2023-08-31T18:19:44;7.13;;;2.72;;
55758;SDS011;41678;52.126;20.664;2023-08-31T18:25:05;12.10;;;2.78;;
55758;SDS011;41678;52.126;20.664;2023-08-31T18:35:49;8.98;;;3.03;;
55758;SDS011;41678;52.126;20.664;2023-08-31T18:41:09;6.90;;;2.70;;
55758;SDS011;41678;52.126;20.664;2023-08-31T18:46:29;15.38;;;3.50;;
55758;SDS011;41678;52.126;20.664;2023-08-31T18:51:49;13.27;;;2.78;;
55758;SDS011;41678;52.126;20.664;2023-08-31T18:57:09;12.43;;;3.40;;
55758;SDS011;41678;52.126;20.664;2023-08-31T19:02:30;9.82;;;2.95;;
55758;SDS011;41678;52.126;20.664;2023-08-31T19:07:50;7.13;;;2.88;;
55758;SDS011;41678;52.126;20.664;2023-08-31T19:13:10;6.80;;;2.63;;
55758;SDS011;41678;52.126;20.664;2023-08-31T19:18:30;9.15;;;3.13;;
55758;SDS011;41678;52.126;20.664;2023-08-31T19:23:49;7.13;;;3.20;;
55758;SDS011;41678;52.126;20.664;2023-08-31T19:29:09;8.40;;;2.75;;
55758;SDS011;41678;52.126;20.664;2023-08-31T19:34:28;6.38;;;2.78;;
55758;SDS011;41678;52.126;20.664;2023-08-31T19:39:51;11.02;;;2.60;;
55758;SDS011;41678;52.126;20.664;2023-08-31T19:45:10;7.13;;;3.42;;
55758;SDS011;41678;52.126;20.664;2023-08-31T19:50:32;10.38;;;3.13;;
55758;SDS011;41678;52.126;20.664;2023-08-31T19:55:52;7.72;;;2.85;;
55758;SDS011;41678;52.126;20.664;2023-08-31T20:01:12;13.23;;;3.55;;
55758;SDS011;41678;52.126;20.664;2023-08-31T20:06:32;7.15;;;2.80;;
55758;SDS011;41678;52.126;20.664;2023-08-31T20:11:51;6.47;;;2.90;;
55758;SDS011;41678;52.126;20.664;2023-08-31T20:17:10;7.70;;;3.28;;
55758;SDS011;41678;52.126;20.664;2023-08-31T20:22:30;11.57;;;3.38;;
55758;SDS011;41678;52.126;20.664;2023-08-31T20:27:50;7.55;;;2.60;;
55758;SDS011;41678;52.126;20.664;2023-08-31T20:33:09;6.63;;;2.88;;
55758;SDS011;41678;52.126;20.664;2023-08-31T20:38:30;6.82;;;2.90;;
55758;SDS011;41678;52.126;20.664;2023-08-31T20:43:50;8.77;;;3.40;;
55758;SDS011;41678;52.126;20.664;2023-08-31T20:49:09;20.42;;;3.55;;
55758;SDS011;41678;52.126;20.664;2023-08-31T20:54:29;12.20;;;3.00;;
55758;SDS011;41678;52.126;20.664;2023-08-31T20:59:48;10.07;;;3.13;;
55758;SDS011;41678;52.126;20.664;2023-08-31T21:05:08;8.25;;;3.28;;
55758;SDS011;41678;52.126;20.664;2023-08-31T21:10:28;9.75;;;3.05;;
55758;SDS011;41678;52.126;20.664;2023-08-31T21:15:47;7.53;;;2.85;;
55758;SDS011;41678;52.126;20.664;2023-08-31T21:21:07;8.02;;;3.42;;
55758;SDS011;41678;52.126;20.664;2023-08-31T21:26:28;6.07;;;2.75;;
55758;SDS011;41678;52.126;20.664;2023-08-31T21:31:48;9.50;;;2.80;;
55758;SDS011;41678;52.126;20.664;2023-08-31T21:37:08;7.55;;;3.30;;
55758;SDS011;41678;52.126;20.664;2023-08-31T21:42:27;8.15;;;3.20;;
55758;SDS011;41678;52.126;20.664;2023-08-31T21:47:47;13.70;;;3.90;;
55758;SDS011;41678;52.126;20.664;2023-08-31T21:53:06;7.43;;;3.08;;
55758;SDS011;41678;52.126;20.664;2023-08-31T21:58:26;7.13;;;3.13;;
55758;SDS011;41678;52.126;20.664;2023-08-31T22:03:46;8.85;;;3.60;;
55758;SDS011;41678;52.126;20.664;2023-08-31T22:09:05;7.25;;;2.78;;
55758;SDS011;41678;52.126;20.664;2023-08-31T22:14:26;7.28;;;3.20;;
55758;SDS011;41678;52.126;20.664;2023-08-31T22:19:45;10.98;;;3.42;;
55758;SDS011;41678;52.126;20.664;2023-08-31T22:25:05;6.93;;;3.08;;
55758;SDS011;41678;52.126;20.664;2023-08-31T22:30:25;7.57;;;3.35;;
55758;SDS011;41678;52.126;20.664;2023-08-31T22:35:45;9.30;;;3.42;;
55758;SDS011;41678;52.126;20.664;2023-08-31T22:41:05;11.63;;;3.20;;
55758;SDS011;41678;52.126;20.664;2023-08-31T22:46:26;7.72;;;3.63;;
55758;SDS011;41678;52.126;20.664;2023-08-31T22:51:46;14.73;;;3.72;;
55758;SDS011;41678;52.126;20.664;2023-08-31T22:57:06;8.32;;;3.10;;
55758;SDS011;41678;52.126;20.664;2023-08-31T23:02:25;8.82;;;3.17;;
55758;SDS011;41678;52.126;20.664;2023-08-31T23:07:45;9.65;;;3.30;;
55758;SDS011;41678;52.126;20.664;2023-08-31T23:13:05;7.75;;;2.50;;
55758;SDS011;41678;52.126;20.664;2023-08-31T23:18:25;7.45;;;3.35;;
55758;SDS011;41678;52.126;20.664;2023-08-31T23:23:44;6.85;;;3.35;;
55758;SDS011;41678;52.126;20.664;2023-08-31T23:29:04;9.90;;;2.97;;
55758;SDS011;41678;52.126;20.664;2023-08-31T23:34:26;10.60;;;2.90;;
55758;SDS011;41678;52.126;20.664;2023-08-31T23:39:45;6.20;;;2.80;;
55758;SDS011;41678;52.126;20.664;2023-08-31T23:45:05;7.28;;;3.05;;
55758;SDS011;41678;52.126;20.664;2023-08-31T23:50:26;9.37;;;2.70;;
55758;SDS011;41678;52.126;20.664;2023-08-31T23:55:46;5.60;;;2.50;;
